sensor_id;sensor_type;location;lat;lon;timestamp;temperature;humidity
14682;DHT22;7429;52.498;13.480;2023-12-28T00:02:22;5.00;99.90
14682;DHT22;7429;52.498;13.480;2023-12-28T00:05:26;5.10;99.90
14682;DHT22;7429;52.498;13.480;2023-12-28T00:08:29;5.20;99.90
14682;DHT22;7429;52.498;13.480;2023-12-28T00:11:34;5.20;99.90
14682;DHT22;7429;52.498;13.480;2023-12-28T00:14:38;5.20;99.90
14682;DHT22;7429;52.498;13.480;2023-12-28T00:17:41;5.20;99.90
14682;DHT22;7429;52.498;13.480;2023-12-28T00:20:44;5.20;99.90
14682;DHT22;7429;52.498;13.480;2023-12-28T00:23:47;5.20;99.90
14682;DHT22;7429;52.498;13.480;2023-12-28T00:26:50;5.10;99.90
14682;DHT22;7429;52.498;13.480;2023-12-28T00:29:55;5.10;99.90
14682;DHT22;7429;52.498;13.480;2023-12-28T00:32:59;5.10;99.90
14682;DHT22;7429;52.498;13.480;2023-12-28T00:36:05;5.20;99.90
14682;DHT22;7429;52.498;13.480;2023-12-28T00:39:08;5.20;99.90
14682;DHT22;7429;52.498;13.480;2023-12-28T00:42:11;5.20;99.90
14682;DHT22;7429;52.498;13.480;2023-12-28T00:45:15;5.20;99.90
14682;DHT22;7429;52.498;13.480;2023-12-28T00:48:19;5.10;99.90
14682;DHT22;7429;52.498;13.480;2023-12-28T00:51:22;5.10;99.90
14682;DHT22;7429;52.498;13.480;2023-12-28T00:54:25;5.10;99.90
14682;DHT22;7429;52.498;13.480;2023-12-28T00:57:28;5.10;99.90
14682;DHT22;7429;52.498;13.480;2023-12-28T01:00:33;5.10;99.90
14682;DHT22;7429;52.498;13.480;2023-12-28T01:03:36;5.10;99.90
14682;DHT22;7429;52.498;13.480;2023-12-28T01:06:40;5.10;99.90
14682;DHT22;7429;52.498;13.480;2023-12-28T01:09:43;5.00;99.90
14682;DHT22;7429;52.498;13.480;2023-12-28T01:12:46;5.00;99.90
14682;DHT22;7429;52.498;13.480;2023-12-28T01:15:50;5.00;99.90
14682;DHT22;7429;52.498;13.480;2023-12-28T01:18:53;4.90;99.90
14682;DHT22;7429;52.498;13.480;2023-12-28T01:21:57;4.90;99.90
14682;DHT22;7429;52.498;13.480;2023-12-28T01:25:00;4.80;99.90
14682;DHT22;7429;52.498;13.480;2023-12-28T01:28:04;4.70;99.90
14682;DHT22;7429;52.498;13.480;2023-12-28T01:31:09;4.70;99.90
14682;DHT22;7429;52.498;13.480;2023-12-28T01:34:12;4.60;99.90
14682;DHT22;7429;52.498;13.480;2023-12-28T01:37:17;4.50;99.90
14682;DHT22;7429;52.498;13.480;2023-12-28T01:40:20;4.50;99.90
14682;DHT22;7429;52.498;13.480;2023-12-28T01:43:23;4.50;99.90
14682;DHT22;7429;52.498;13.480;2023-12-28T01:46:27;4.40;99.90
14682;DHT22;7429;52.498;13.480;2023-12-28T01:49:30;4.30;99.90
14682;DHT22;7429;52.498;13.480;2023-12-28T01:52:34;4.30;99.90
14682;DHT22;7429;52.498;13.480;2023-12-28T01:55:37;4.20;99.90
14682;DHT22;7429;52.498;13.480;2023-12-28T01:58:42;4.20;99.90
14682;DHT22;7429;52.498;13.480;2023-12-28T02:01:47;4.20;99.90
14682;DHT22;7429;52.498;13.480;2023-12-28T02:04:50;4.20;99.90
14682;DHT22;7429;52.498;13.480;2023-12-28T02:07:54;4.20;99.90
14682;DHT22;7429;52.498;13.480;2023-12-28T02:10:59;4.20;99.90
14682;DHT22;7429;52.498;13.480;2023-12-28T02:14:03;4.30;99.90
14682;DHT22;7429;52.498;13.480;2023-12-28T02:17:12;4.30;99.90
14682;DHT22;7429;52.498;13.480;2023-12-28T02:20:18;4.20;99.90
14682;DHT22;7429;52.498;13.480;2023-12-28T02:23:22;4.30;99.90
14682;DHT22;7429;52.498;13.480;2023-12-28T02:26:26;4.30;99.90
14682;DHT22;7429;52.498;13.480;2023-12-28T02:29:29;4.30;99.90
14682;DHT22;7429;52.498;13.480;2023-12-28T02:32:42;4.20;99.90
14682;DHT22;7429;52.498;13.480;2023-12-28T02:35:55;4.30;99.90
14682;DHT22;7429;52.498;13.480;2023-12-28T02:39:01;4.20;99.90
14682;DHT22;7429;52.498;13.480;2023-12-28T02:42:07;4.30;99.90
14682;DHT22;7429;52.498;13.480;2023-12-28T02:45:11;4.50;99.90
14682;DHT22;7429;52.498;13.480;2023-12-28T02:48:14;4.50;99.90
14682;DHT22;7429;52.498;13.480;2023-12-28T02:51:18;4.70;99.90
14682;DHT22;7429;52.498;13.480;2023-12-28T02:54:21;4.90;99.90
14682;DHT22;7429;52.498;13.480;2023-12-28T02:57:25;5.00;99.90
14682;DHT22;7429;52.498;13.480;2023-12-28T03:00:29;5.10;99.90
14682;DHT22;7429;52.498;13.480;2023-12-28T03:03:32;5.30;99.90
14682;DHT22;7429;52.498;13.480;2023-12-28T03:06:35;5.60;99.90
14682;DHT22;7429;52.498;13.480;2023-12-28T03:09:40;5.80;99.90
14682;DHT22;7429;52.498;13.480;2023-12-28T03:12:44;6.20;99.90
14682;DHT22;7429;52.498;13.480;2023-12-28T03:15:48;6.30;99.90
14682;DHT22;7429;52.498;13.480;2023-12-28T03:18:51;6.40;99.90
14682;DHT22;7429;52.498;13.480;2023-12-28T03:21:54;6.50;99.90
14682;DHT22;7429;52.498;13.480;2023-12-28T03:24:57;6.70;99.90
14682;DHT22;7429;52.498;13.480;2023-12-28T03:28:02;6.90;99.90
14682;DHT22;7429;52.498;13.480;2023-12-28T03:31:05;7.00;99.90
14682;DHT22;7429;52.498;13.480;2023-12-28T03:34:09;7.20;99.90
14682;DHT22;7429;52.498;13.480;2023-12-28T03:37:12;7.40;99.90
14682;DHT22;7429;52.498;13.480;2023-12-28T03:40:15;7.50;99.90
14682;DHT22;7429;52.498;13.480;2023-12-28T03:43:23;7.70;99.90
14682;DHT22;7429;52.498;13.480;2023-12-28T03:46:26;7.80;99.90
14682;DHT22;7429;52.498;13.480;2023-12-28T03:49:29;7.80;99.90
14682;DHT22;7429;52.498;13.480;2023-12-28T03:52:32;7.90;99.90
14682;DHT22;7429;52.498;13.480;2023-12-28T03:55:35;7.90;99.90
14682;DHT22;7429;52.498;13.480;2023-12-28T03:58:40;7.80;99.90
14682;DHT22;7429;52.498;13.480;2023-12-28T04:01:43;7.70;99.90
14682;DHT22;7429;52.498;13.480;2023-12-28T04:04:47;7.70;99.90
14682;DHT22;7429;52.498;13.480;2023-12-28T04:07:50;7.60;99.90
14682;DHT22;7429;52.498;13.480;2023-12-28T04:10:53;7.60;99.90
14682;DHT22;7429;52.498;13.480;2023-12-28T04:13:58;7.50;99.90
14682;DHT22;7429;52.498;13.480;2023-12-28T04:17:01;7.50;99.90
14682;DHT22;7429;52.498;13.480;2023-12-28T04:20:07;7.50;99.90
14682;DHT22;7429;52.498;13.480;2023-12-28T04:23:10;7.50;99.90
14682;DHT22;7429;52.498;13.480;2023-12-28T04:26:13;7.40;99.90
14682;DHT22;7429;52.498;13.480;2023-12-28T04:29:18;7.40;99.90
14682;DHT22;7429;52.498;13.480;2023-12-28T04:32:21;7.50;99.90
14682;DHT22;7429;52.498;13.480;2023-12-28T04:35:25;7.50;99.90
14682;DHT22;7429;52.498;13.480;2023-12-28T04:38:29;7.60;99.90
14682;DHT22;7429;52.498;13.480;2023-12-28T04:41:33;7.70;99.90
14682;DHT22;7429;52.498;13.480;2023-12-28T04:44:38;7.70;99.90
14682;DHT22;7429;52.498;13.480;2023-12-28T04:47:41;7.80;99.90
14682;DHT22;7429;52.498;13.480;2023-12-28T04:50:45;7.80;99.90
14682;DHT22;7429;52.498;13.480;2023-12-28T04:53:48;7.90;99.90
14682;DHT22;7429;52.498;13.480;2023-12-28T04:56:51;8.00;99.90
14682;DHT22;7429;52.498;13.480;2023-12-28T04:59:56;8.00;99.90
14682;DHT22;7429;52.498;13.480;2023-12-28T05:02:59;7.90;99.90
14682;DHT22;7429;52.498;13.480;2023-12-28T05:06:04;8.00;99.90
14682;DHT22;7429;52.498;13.480;2023-12-28T05:09:07;8.00;99.90
14682;DHT22;7429;52.498;13.480;2023-12-28T05:12:10;8.10;99.90
14682;DHT22;7429;52.498;13.480;2023-12-28T05:15:15;8.10;99.90
14682;DHT22;7429;52.498;13.480;2023-12-28T05:18:19;8.10;99.90
14682;DHT22;7429;52.498;13.480;2023-12-28T05:21:23;8.20;99.90
14682;DHT22;7429;52.498;13.480;2023-12-28T05:24:26;8.20;99.90
14682;DHT22;7429;52.498;13.480;2023-12-28T05:27:29;8.20;99.90
14682;DHT22;7429;52.498;13.480;2023-12-28T05:30:33;8.10;99.90
14682;DHT22;7429;52.498;13.480;2023-12-28T05:33:36;8.10;99.90
14682;DHT22;7429;52.498;13.480;2023-12-28T05:36:40;8.10;99.90
14682;DHT22;7429;52.498;13.480;2023-12-28T05:39:47;8.10;99.90
14682;DHT22;7429;52.498;13.480;2023-12-28T05:42:50;8.10;99.90
14682;DHT22;7429;52.498;13.480;2023-12-28T05:45:55;8.10;99.90
14682;DHT22;7429;52.498;13.480;2023-12-28T05:48:58;8.20;99.90
14682;DHT22;7429;52.498;13.480;2023-12-28T05:52:01;8.20;99.90
14682;DHT22;7429;52.498;13.480;2023-12-28T05:55:05;8.20;99.90
14682;DHT22;7429;52.498;13.480;2023-12-28T05:58:09;8.10;99.90
14682;DHT22;7429;52.498;13.480;2023-12-28T06:01:13;8.10;99.90
14682;DHT22;7429;52.498;13.480;2023-12-28T06:04:16;8.10;99.90
14682;DHT22;7429;52.498;13.480;2023-12-28T06:07:32;8.10;99.90
14682;DHT22;7429;52.498;13.480;2023-12-28T06:10:35;8.20;99.90
14682;DHT22;7429;52.498;13.480;2023-12-28T06:13:38;8.30;99.90
14682;DHT22;7429;52.498;13.480;2023-12-28T06:16:43;8.30;99.90
14682;DHT22;7429;52.498;13.480;2023-12-28T06:19:46;8.40;99.90
14682;DHT22;7429;52.498;13.480;2023-12-28T06:22:49;8.50;99.90
14682;DHT22;7429;52.498;13.480;2023-12-28T06:25:52;8.50;99.90
14682;DHT22;7429;52.498;13.480;2023-12-28T06:28:56;8.50;99.90
14682;DHT22;7429;52.498;13.480;2023-12-28T06:32:00;8.60;99.90
14682;DHT22;7429;52.498;13.480;2023-12-28T06:35:04;8.70;99.90
14682;DHT22;7429;52.498;13.480;2023-12-28T06:38:08;8.70;99.90
14682;DHT22;7429;52.498;13.480;2023-12-28T06:41:13;8.70;99.90
14682;DHT22;7429;52.498;13.480;2023-12-28T06:44:17;8.70;99.90
14682;DHT22;7429;52.498;13.480;2023-12-28T06:47:21;8.70;99.90
14682;DHT22;7429;52.498;13.480;2023-12-28T06:50:24;8.60;99.90
14682;DHT22;7429;52.498;13.480;2023-12-28T06:53:28;8.60;99.90
14682;DHT22;7429;52.498;13.480;2023-12-28T06:56:31;8.50;99.90
14682;DHT22;7429;52.498;13.480;2023-12-28T06:59:34;8.50;99.90
14682;DHT22;7429;52.498;13.480;2023-12-28T07:02:39;8.40;99.90
14682;DHT22;7429;52.498;13.480;2023-12-28T07:05:43;8.30;99.90
14682;DHT22;7429;52.498;13.480;2023-12-28T07:08:46;8.20;99.90
14682;DHT22;7429;52.498;13.480;2023-12-28T07:11:49;8.10;99.90
14682;DHT22;7429;52.498;13.480;2023-12-28T07:14:52;8.00;99.90
14682;DHT22;7429;52.498;13.480;2023-12-28T07:17:57;7.90;99.90
14682;DHT22;7429;52.498;13.480;2023-12-28T07:21:02;7.80;99.90
14682;DHT22;7429;52.498;13.480;2023-12-28T07:24:11;7.80;99.90
14682;DHT22;7429;52.498;13.480;2023-12-28T07:27:14;7.80;99.90
14682;DHT22;7429;52.498;13.480;2023-12-28T07:30:17;7.80;99.90
14682;DHT22;7429;52.498;13.480;2023-12-28T07:33:22;7.90;99.90
14682;DHT22;7429;52.498;13.480;2023-12-28T07:36:25;7.90;99.90
14682;DHT22;7429;52.498;13.480;2023-12-28T07:39:28;7.90;99.90
14682;DHT22;7429;52.498;13.480;2023-12-28T07:42:32;8.00;99.90
14682;DHT22;7429;52.498;13.480;2023-12-28T07:45:35;8.00;99.90
14682;DHT22;7429;52.498;13.480;2023-12-28T07:48:42;8.10;99.90
14682;DHT22;7429;52.498;13.480;2023-12-28T07:51:45;8.20;99.90
14682;DHT22;7429;52.498;13.480;2023-12-28T07:54:49;8.30;99.90
14682;DHT22;7429;52.498;13.480;2023-12-28T07:57:52;8.40;99.90
14682;DHT22;7429;52.498;13.480;2023-12-28T08:00:56;8.50;99.90
14682;DHT22;7429;52.498;13.480;2023-12-28T08:04:01;8.40;99.90
14682;DHT22;7429;52.498;13.480;2023-12-28T08:07:04;8.50;99.90
14682;DHT22;7429;52.498;13.480;2023-12-28T08:10:09;8.50;99.90
14682;DHT22;7429;52.498;13.480;2023-12-28T08:13:12;8.50;99.90
14682;DHT22;7429;52.498;13.480;2023-12-28T08:16:15;8.60;99.90
14682;DHT22;7429;52.498;13.480;2023-12-28T08:19:20;8.60;99.90
14682;DHT22;7429;52.498;13.480;2023-12-28T08:22:23;8.60;99.90
14682;DHT22;7429;52.498;13.480;2023-12-28T08:25:26;8.60;99.90
14682;DHT22;7429;52.498;13.480;2023-12-28T08:28:30;8.60;99.90
14682;DHT22;7429;52.498;13.480;2023-12-28T08:31:33;8.70;99.90
14682;DHT22;7429;52.498;13.480;2023-12-28T08:34:38;8.70;99.90
14682;DHT22;7429;52.498;13.480;2023-12-28T08:37:43;8.60;99.90
14682;DHT22;7429;52.498;13.480;2023-12-28T08:40:48;8.60;99.90
14682;DHT22;7429;52.498;13.480;2023-12-28T08:43:51;8.70;99.90
14682;DHT22;7429;52.498;13.480;2023-12-28T08:46:55;8.60;99.90
14682;DHT22;7429;52.498;13.480;2023-12-28T08:50:00;8.60;99.90
14682;DHT22;7429;52.498;13.480;2023-12-28T08:53:03;8.50;99.90
14682;DHT22;7429;52.498;13.480;2023-12-28T08:56:13;8.60;99.90
14682;DHT22;7429;52.498;13.480;2023-12-28T08:59:22;8.60;99.90
14682;DHT22;7429;52.498;13.480;2023-12-28T09:02:27;8.60;99.90
14682;DHT22;7429;52.498;13.480;2023-12-28T09:05:34;8.60;99.90
14682;DHT22;7429;52.498;13.480;2023-12-28T09:08:37;8.70;99.90
14682;DHT22;7429;52.498;13.480;2023-12-28T09:11:40;8.70;99.90
14682;DHT22;7429;52.498;13.480;2023-12-28T09:14:43;8.70;99.90
14682;DHT22;7429;52.498;13.480;2023-12-28T09:17:48;8.80;99.90
14682;DHT22;7429;52.498;13.480;2023-12-28T09:20:56;8.70;99.90
14682;DHT22;7429;52.498;13.480;2023-12-28T09:23:59;8.70;99.90
14682;DHT22;7429;52.498;13.480;2023-12-28T09:27:02;8.80;99.90
14682;DHT22;7429;52.498;13.480;2023-12-28T09:30:07;8.70;99.90
14682;DHT22;7429;52.498;13.480;2023-12-28T09:33:11;8.70;99.90
14682;DHT22;7429;52.498;13.480;2023-12-28T09:36:15;8.70;99.90
14682;DHT22;7429;52.498;13.480;2023-12-28T09:39:18;8.80;99.90
14682;DHT22;7429;52.498;13.480;2023-12-28T09:42:25;8.80;99.90
14682;DHT22;7429;52.498;13.480;2023-12-28T09:45:29;8.80;99.90
14682;DHT22;7429;52.498;13.480;2023-12-28T09:48:33;8.70;99.90
14682;DHT22;7429;52.498;13.480;2023-12-28T09:51:38;8.70;99.90
14682;DHT22;7429;52.498;13.480;2023-12-28T09:54:42;8.70;99.90
14682;DHT22;7429;52.498;13.480;2023-12-28T09:57:46;8.60;99.90
14682;DHT22;7429;52.498;13.480;2023-12-28T10:00:50;8.70;99.90
14682;DHT22;7429;52.498;13.480;2023-12-28T10:03:53;8.60;99.90
14682;DHT22;7429;52.498;13.480;2023-12-28T10:06:57;8.60;99.90
14682;DHT22;7429;52.498;13.480;2023-12-28T10:10:01;8.60;99.90
14682;DHT22;7429;52.498;13.480;2023-12-28T10:13:05;8.60;99.90
14682;DHT22;7429;52.498;13.480;2023-12-28T10:16:09;8.70;99.90
14682;DHT22;7429;52.498;13.480;2023-12-28T10:19:13;8.70;99.90
14682;DHT22;7429;52.498;13.480;2023-12-28T10:22:18;8.70;99.90
14682;DHT22;7429;52.498;13.480;2023-12-28T10:25:21;8.70;99.90
14682;DHT22;7429;52.498;13.480;2023-12-28T10:28:25;8.70;99.90
14682;DHT22;7429;52.498;13.480;2023-12-28T10:31:28;8.70;99.90
14682;DHT22;7429;52.498;13.480;2023-12-28T10:34:32;8.80;99.90
14682;DHT22;7429;52.498;13.480;2023-12-28T10:37:40;9.00;99.90
14682;DHT22;7429;52.498;13.480;2023-12-28T10:40:47;9.20;99.90
14682;DHT22;7429;52.498;13.480;2023-12-28T10:43:56;9.30;99.90
14682;DHT22;7429;52.498;13.480;2023-12-28T10:47:11;9.40;99.90
14682;DHT22;7429;52.498;13.480;2023-12-28T10:50:19;9.50;99.90
14682;DHT22;7429;52.498;13.480;2023-12-28T10:53:33;9.60;99.90
14682;DHT22;7429;52.498;13.480;2023-12-28T10:56:46;9.60;99.90
14682;DHT22;7429;52.498;13.480;2023-12-28T10:59:57;9.70;99.90
14682;DHT22;7429;52.498;13.480;2023-12-28T11:03:06;9.70;99.90
14682;DHT22;7429;52.498;13.480;2023-12-28T11:06:12;9.60;99.90
14682;DHT22;7429;52.498;13.480;2023-12-28T11:09:20;9.70;99.90
14682;DHT22;7429;52.498;13.480;2023-12-28T11:12:27;9.80;99.90
14682;DHT22;7429;52.498;13.480;2023-12-28T11:15:31;9.90;99.90
14682;DHT22;7429;52.498;13.480;2023-12-28T11:18:37;9.90;99.90
14682;DHT22;7429;52.498;13.480;2023-12-28T11:21:40;10.00;99.90
14682;DHT22;7429;52.498;13.480;2023-12-28T11:24:46;10.00;99.90
14682;DHT22;7429;52.498;13.480;2023-12-28T11:27:49;10.10;99.90
14682;DHT22;7429;52.498;13.480;2023-12-28T11:30:52;10.10;99.90
14682;DHT22;7429;52.498;13.480;2023-12-28T11:34:05;10.10;99.90
14682;DHT22;7429;52.498;13.480;2023-12-28T11:37:17;10.10;99.90
14682;DHT22;7429;52.498;13.480;2023-12-28T11:40:23;10.10;99.90
14682;DHT22;7429;52.498;13.480;2023-12-28T11:43:27;10.20;99.90
14682;DHT22;7429;52.498;13.480;2023-12-28T11:46:37;10.20;99.90
14682;DHT22;7429;52.498;13.480;2023-12-28T11:49:43;10.20;99.90
14682;DHT22;7429;52.498;13.480;2023-12-28T11:52:49;10.20;99.90
14682;DHT22;7429;52.498;13.480;2023-12-28T11:56:06;10.30;99.90
14682;DHT22;7429;52.498;13.480;2023-12-28T11:59:12;10.30;99.90
14682;DHT22;7429;52.498;13.480;2023-12-28T12:02:18;10.40;99.90
14682;DHT22;7429;52.498;13.480;2023-12-28T12:05:22;10.40;99.90
14682;DHT22;7429;52.498;13.480;2023-12-28T12:08:29;10.50;99.90
14682;DHT22;7429;52.498;13.480;2023-12-28T12:11:33;10.60;99.90
14682;DHT22;7429;52.498;13.480;2023-12-28T12:14:37;10.60;99.90
14682;DHT22;7429;52.498;13.480;2023-12-28T12:17:40;10.60;99.90
14682;DHT22;7429;52.498;13.480;2023-12-28T12:20:44;10.60;99.90
14682;DHT22;7429;52.498;13.480;2023-12-28T12:23:47;10.60;99.90
14682;DHT22;7429;52.498;13.480;2023-12-28T12:26:53;10.60;99.90
14682;DHT22;7429;52.498;13.480;2023-12-28T12:29:56;10.70;99.90
14682;DHT22;7429;52.498;13.480;2023-12-28T12:33:02;10.70;99.90
14682;DHT22;7429;52.498;13.480;2023-12-28T12:36:08;10.70;99.90
14682;DHT22;7429;52.498;13.480;2023-12-28T12:39:11;10.70;99.90
14682;DHT22;7429;52.498;13.480;2023-12-28T12:42:20;10.70;99.90
14682;DHT22;7429;52.498;13.480;2023-12-28T12:45:23;10.70;99.90
14682;DHT22;7429;52.498;13.480;2023-12-28T12:48:29;10.70;99.90
14682;DHT22;7429;52.498;13.480;2023-12-28T12:51:32;10.80;99.90
14682;DHT22;7429;52.498;13.480;2023-12-28T12:54:37;10.70;99.90
14682;DHT22;7429;52.498;13.480;2023-12-28T12:57:42;10.80;99.90
14682;DHT22;7429;52.498;13.480;2023-12-28T13:00:45;10.80;99.90
14682;DHT22;7429;52.498;13.480;2023-12-28T13:03:50;10.90;99.90
14682;DHT22;7429;52.498;13.480;2023-12-28T13:06:53;10.80;99.90
14682;DHT22;7429;52.498;13.480;2023-12-28T13:09:56;10.90;99.90
14682;DHT22;7429;52.498;13.480;2023-12-28T13:13:01;10.80;99.90
14682;DHT22;7429;52.498;13.480;2023-12-28T13:16:05;10.80;99.90
14682;DHT22;7429;52.498;13.480;2023-12-28T13:19:08;10.80;99.90
14682;DHT22;7429;52.498;13.480;2023-12-28T13:22:12;10.80;99.90
14682;DHT22;7429;52.498;13.480;2023-12-28T13:25:15;10.80;99.90
14682;DHT22;7429;52.498;13.480;2023-12-28T13:32:07;10.80;99.90
14682;DHT22;7429;52.498;13.480;2023-12-28T13:35:11;10.70;99.90
14682;DHT22;7429;52.498;13.480;2023-12-28T13:38:14;10.70;99.90
14682;DHT22;7429;52.498;13.480;2023-12-28T13:41:17;10.70;99.90
14682;DHT22;7429;52.498;13.480;2023-12-28T13:44:21;10.60;99.90
14682;DHT22;7429;52.498;13.480;2023-12-28T13:47:24;10.60;99.90
14682;DHT22;7429;52.498;13.480;2023-12-28T13:50:27;10.60;99.90
14682;DHT22;7429;52.498;13.480;2023-12-28T13:53:30;10.60;99.90
14682;DHT22;7429;52.498;13.480;2023-12-28T13:56:37;10.60;99.90
14682;DHT22;7429;52.498;13.480;2023-12-28T13:59:42;10.60;99.90
14682;DHT22;7429;52.498;13.480;2023-12-28T14:02:45;10.60;99.90
14682;DHT22;7429;52.498;13.480;2023-12-28T14:05:48;10.60;99.90
14682;DHT22;7429;52.498;13.480;2023-12-28T14:08:51;10.60;99.90
14682;DHT22;7429;52.498;13.480;2023-12-28T14:11:54;10.50;99.90
14682;DHT22;7429;52.498;13.480;2023-12-28T14:15:00;10.50;99.90
14682;DHT22;7429;52.498;13.480;2023-12-28T14:18:04;10.50;99.90
14682;DHT22;7429;52.498;13.480;2023-12-28T14:21:09;10.50;99.90
14682;DHT22;7429;52.498;13.480;2023-12-28T14:24:15;10.50;99.90
14682;DHT22;7429;52.498;13.480;2023-12-28T14:27:21;10.40;99.90
14682;DHT22;7429;52.498;13.480;2023-12-28T14:30:26;10.40;99.90
14682;DHT22;7429;52.498;13.480;2023-12-28T14:33:31;10.40;99.90
14682;DHT22;7429;52.498;13.480;2023-12-28T14:36:36;10.40;99.90
14682;DHT22;7429;52.498;13.480;2023-12-28T14:39:40;10.40;99.90
14682;DHT22;7429;52.498;13.480;2023-12-28T14:42:43;10.40;99.90
14682;DHT22;7429;52.498;13.480;2023-12-28T14:45:48;10.30;99.90
14682;DHT22;7429;52.498;13.480;2023-12-28T14:48:54;10.20;99.90
14682;DHT22;7429;52.498;13.480;2023-12-28T14:51:58;10.20;99.90
14682;DHT22;7429;52.498;13.480;2023-12-28T14:55:01;10.10;99.90
14682;DHT22;7429;52.498;13.480;2023-12-28T14:58:04;10.10;99.90
14682;DHT22;7429;52.498;13.480;2023-12-28T15:01:09;10.20;99.90
14682;DHT22;7429;52.498;13.480;2023-12-28T15:04:12;10.10;99.90
14682;DHT22;7429;52.498;13.480;2023-12-28T15:07:16;10.00;99.90
14682;DHT22;7429;52.498;13.480;2023-12-28T15:10:21;10.00;99.90
14682;DHT22;7429;52.498;13.480;2023-12-28T15:13:25;9.90;99.90
14682;DHT22;7429;52.498;13.480;2023-12-28T15:16:35;9.80;99.90
14682;DHT22;7429;52.498;13.480;2023-12-28T15:19:39;9.80;99.90
14682;DHT22;7429;52.498;13.480;2023-12-28T15:22:43;9.80;99.90
14682;DHT22;7429;52.498;13.480;2023-12-28T15:25:46;9.80;99.90
14682;DHT22;7429;52.498;13.480;2023-12-28T15:28:50;9.80;99.90
14682;DHT22;7429;52.498;13.480;2023-12-28T15:31:54;9.70;99.90
14682;DHT22;7429;52.498;13.480;2023-12-28T15:34:57;9.70;99.90
14682;DHT22;7429;52.498;13.480;2023-12-28T15:38:07;9.60;99.90
14682;DHT22;7429;52.498;13.480;2023-12-28T15:41:10;9.50;99.90
14682;DHT22;7429;52.498;13.480;2023-12-28T15:44:13;9.50;99.90
14682;DHT22;7429;52.498;13.480;2023-12-28T15:47:18;9.50;99.90
14682;DHT22;7429;52.498;13.480;2023-12-28T15:50:21;9.50;99.90
14682;DHT22;7429;52.498;13.480;2023-12-28T15:53:24;9.40;99.90
14682;DHT22;7429;52.498;13.480;2023-12-28T15:56:27;9.40;99.90
14682;DHT22;7429;52.498;13.480;2023-12-28T15:59:30;9.30;99.90
14682;DHT22;7429;52.498;13.480;2023-12-28T16:02:35;9.30;99.90
14682;DHT22;7429;52.498;13.480;2023-12-28T16:05:38;9.30;99.90
14682;DHT22;7429;52.498;13.480;2023-12-28T16:08:46;9.30;99.90
14682;DHT22;7429;52.498;13.480;2023-12-28T16:11:49;9.20;99.90
14682;DHT22;7429;52.498;13.480;2023-12-28T16:14:53;9.20;99.90
14682;DHT22;7429;52.498;13.480;2023-12-28T16:17:58;9.20;99.90
14682;DHT22;7429;52.498;13.480;2023-12-28T16:21:02;9.10;99.90
14682;DHT22;7429;52.498;13.480;2023-12-28T16:24:06;9.10;99.90
14682;DHT22;7429;52.498;13.480;2023-12-28T16:27:09;9.10;99.90
14682;DHT22;7429;52.498;13.480;2023-12-28T16:30:13;9.10;99.90
14682;DHT22;7429;52.498;13.480;2023-12-28T16:33:17;9.10;99.90
14682;DHT22;7429;52.498;13.480;2023-12-28T16:36:21;9.10;99.90
14682;DHT22;7429;52.498;13.480;2023-12-28T16:39:24;9.10;99.90
14682;DHT22;7429;52.498;13.480;2023-12-28T16:42:28;9.10;99.90
14682;DHT22;7429;52.498;13.480;2023-12-28T16:45:31;9.00;99.90
14682;DHT22;7429;52.498;13.480;2023-12-28T16:48:37;9.10;99.90
14682;DHT22;7429;52.498;13.480;2023-12-28T16:51:41;9.00;99.90
14682;DHT22;7429;52.498;13.480;2023-12-28T16:54:44;9.00;99.90
14682;DHT22;7429;52.498;13.480;2023-12-28T16:57:47;9.10;99.90
14682;DHT22;7429;52.498;13.480;2023-12-28T17:00:50;9.10;99.90
14682;DHT22;7429;52.498;13.480;2023-12-28T17:03:55;9.10;99.90
14682;DHT22;7429;52.498;13.480;2023-12-28T17:06:58;9.10;99.90
14682;DHT22;7429;52.498;13.480;2023-12-28T17:10:02;9.10;99.90
14682;DHT22;7429;52.498;13.480;2023-12-28T17:13:07;9.10;99.90
14682;DHT22;7429;52.498;13.480;2023-12-28T17:16:12;9.10;99.90
14682;DHT22;7429;52.498;13.480;2023-12-28T17:19:17;9.10;99.90
14682;DHT22;7429;52.498;13.480;2023-12-28T17:22:23;9.10;99.90
14682;DHT22;7429;52.498;13.480;2023-12-28T17:25:31;9.10;99.90
14682;DHT22;7429;52.498;13.480;2023-12-28T17:28:45;9.10;99.90
14682;DHT22;7429;52.498;13.480;2023-12-28T17:31:50;9.10;99.90
14682;DHT22;7429;52.498;13.480;2023-12-28T17:34:56;9.20;99.90
14682;DHT22;7429;52.498;13.480;2023-12-28T17:37:59;9.20;99.90
14682;DHT22;7429;52.498;13.480;2023-12-28T17:41:04;9.10;99.90
14682;DHT22;7429;52.498;13.480;2023-12-28T17:44:10;9.10;99.90
14682;DHT22;7429;52.498;13.480;2023-12-28T17:47:20;9.10;99.90
14682;DHT22;7429;52.498;13.480;2023-12-28T17:50:29;9.10;99.90
14682;DHT22;7429;52.498;13.480;2023-12-28T17:53:34;9.10;99.90
14682;DHT22;7429;52.498;13.480;2023-12-28T17:56:38;9.10;99.90
14682;DHT22;7429;52.498;13.480;2023-12-28T17:59:41;9.10;99.90
14682;DHT22;7429;52.498;13.480;2023-12-28T18:02:59;9.10;99.90
14682;DHT22;7429;52.498;13.480;2023-12-28T18:06:04;9.10;99.90
14682;DHT22;7429;52.498;13.480;2023-12-28T18:09:08;9.10;99.90
14682;DHT22;7429;52.498;13.480;2023-12-28T18:12:11;9.10;99.90
14682;DHT22;7429;52.498;13.480;2023-12-28T18:15:14;9.10;99.90
14682;DHT22;7429;52.498;13.480;2023-12-28T18:18:17;9.10;99.90
14682;DHT22;7429;52.498;13.480;2023-12-28T18:21:22;9.10;99.90
14682;DHT22;7429;52.498;13.480;2023-12-28T18:24:25;9.00;99.90
14682;DHT22;7429;52.498;13.480;2023-12-28T18:27:28;9.00;99.90
14682;DHT22;7429;52.498;13.480;2023-12-28T18:30:32;8.90;99.90
14682;DHT22;7429;52.498;13.480;2023-12-28T18:33:37;8.90;99.90
14682;DHT22;7429;52.498;13.480;2023-12-28T18:36:43;8.70;99.90
14682;DHT22;7429;52.498;13.480;2023-12-28T18:39:47;8.70;99.90
14682;DHT22;7429;52.498;13.480;2023-12-28T18:42:50;8.70;99.90
14682;DHT22;7429;52.498;13.480;2023-12-28T18:45:54;8.70;99.90
14682;DHT22;7429;52.498;13.480;2023-12-28T18:48:57;8.70;99.90
14682;DHT22;7429;52.498;13.480;2023-12-28T18:52:02;8.80;99.90
14682;DHT22;7429;52.498;13.480;2023-12-28T18:55:06;8.80;99.90
14682;DHT22;7429;52.498;13.480;2023-12-28T18:58:11;8.80;99.90
14682;DHT22;7429;52.498;13.480;2023-12-28T19:01:14;8.70;99.90
14682;DHT22;7429;52.498;13.480;2023-12-28T19:04:18;8.70;99.90
14682;DHT22;7429;52.498;13.480;2023-12-28T19:07:22;8.70;99.90
14682;DHT22;7429;52.498;13.480;2023-12-28T19:10:26;8.70;99.90
14682;DHT22;7429;52.498;13.480;2023-12-28T19:13:29;8.70;99.90
14682;DHT22;7429;52.498;13.480;2023-12-28T19:16:32;8.60;99.90
14682;DHT22;7429;52.498;13.480;2023-12-28T19:19:35;8.70;99.90
14682;DHT22;7429;52.498;13.480;2023-12-28T19:22:41;8.70;99.90
14682;DHT22;7429;52.498;13.480;2023-12-28T19:25:47;8.60;99.90
14682;DHT22;7429;52.498;13.480;2023-12-28T19:28:52;8.60;99.90
14682;DHT22;7429;52.498;13.480;2023-12-28T19:32:00;8.60;99.90
14682;DHT22;7429;52.498;13.480;2023-12-28T19:35:04;8.70;99.90
14682;DHT22;7429;52.498;13.480;2023-12-28T19:38:09;8.60;99.90
14682;DHT22;7429;52.498;13.480;2023-12-28T19:41:12;8.50;99.90
14682;DHT22;7429;52.498;13.480;2023-12-28T19:44:18;8.60;99.90